Time;durP1;ratioP1;P1;durP2;ratioP2;P2;SDS_P1;SDS_P2;PMS_P1;PMS_P2;Temp;Humidity;BMP_temperature;BMP_pressure;BME280_temperature;BME280_humidity;BME280_pressure;Samples;Min_cycle;Max_cycle;Signal;HPM_P1;HPM_P2
2023/11/09 00:00:55;;;;;;;22.25;5.35;;;6.50;99.90;;;;;;6200574;28;20425;-79
2023/11/09 00:03:56;;;;;;;17.65;4.78;;;6.40;99.90;;;;;;6217673;28;20102;-81
2023/11/09 00:06:58;;;;;;;17.02;4.82;;;6.50;99.90;;;;;;6225551;28;20046;-80
2023/11/09 00:10:02;;;;;;;20.73;5.25;;;6.40;99.90;;;;;;6219884;28;20069;-80
2023/11/09 00:13:04;;;;;;;23.33;5.25;;;6.40;99.90;;;;;;6239954;28;20140;-80
2023/11/09 00:16:06;;;;;;;23.08;4.90;;;6.40;99.90;;;;;;6200318;28;20573;-80
2023/11/09 00:19:08;;;;;;;23.35;4.97;;;6.40;99.90;;;;;;6219507;28;20058;-80
2023/11/09 00:22:10;;;;;;;24.52;4.88;;;6.40;99.90;;;;;;6242892;28;20049;-80
2023/11/09 00:25:12;;;;;;;17.75;4.53;;;6.50;99.90;;;;;;6219319;28;20521;-81
2023/11/09 00:28:16;;;;;;;24.08;3.75;;;6.40;99.90;;;;;;6237734;28;20413;-80
2023/11/09 00:31:22;;;;;;;21.42;3.83;;;6.40;99.90;;;;;;6219246;28;20056;-80
2023/11/09 00:34:25;;;;;;;21.20;3.70;;;6.40;99.90;;;;;;6199600;28;20111;-80
2023/11/09 00:37:28;;;;;;;27.52;3.88;;;6.50;99.90;;;;;;6218988;28;20057;-81
2023/11/09 00:40:30;;;;;;;15.43;3.22;;;6.40;99.90;;;;;;6242838;28;20053;-80
2023/11/09 00:43:32;;;;;;;20.52;3.50;;;6.40;99.90;;;;;;6222364;28;20058;-80
2023/11/09 00:46:34;;;;;;;17.80;3.42;;;6.30;99.90;;;;;;6244061;28;20079;-80
2023/11/09 00:49:36;;;;;;;26.98;4.53;;;6.40;99.90;;;;;;6219575;28;20565;-80
2023/11/09 00:52:37;;;;;;;23.02;3.63;;;6.40;99.90;;;;;;6243006;28;20049;-80
2023/11/09 00:55:39;;;;;;;19.13;3.85;;;6.30;99.90;;;;;;6201559;28;20050;-79
2023/11/09 00:58:41;;;;;;;16.60;3.22;;;6.40;99.90;;;;;;6216136;28;20050;-80
2023/11/09 01:01:42;;;;;;;21.02;3.97;;;6.40;99.90;;;;;;6218919;28;20065;-80
2023/11/09 01:04:44;;;;;;;22.52;3.88;;;6.50;99.90;;;;;;6225047;28;20060;-81
2023/11/09 01:07:46;;;;;;;23.77;3.88;;;6.40;99.90;;;;;;6201569;28;20061;-81
2023/11/09 01:10:48;;;;;;;19.23;4.45;;;6.40;99.90;;;;;;6242674;28;20049;-80
2023/11/09 01:13:49;;;;;;;20.38;3.70;;;6.50;99.90;;;;;;6225594;28;20061;-80
2023/11/09 01:16:51;;;;;;;21.60;3.75;;;6.60;99.90;;;;;;6223019;28;20060;-81
2023/11/09 01:19:53;;;;;;;21.85;3.85;;;6.50;99.90;;;;;;6247509;28;20050;-81
2023/11/09 01:22:55;;;;;;;23.27;3.92;;;6.50;99.90;;;;;;6223566;28;20062;-80
2023/11/09 01:25:56;;;;;;;24.13;3.78;;;6.50;99.90;;;;;;6229340;28;20065;-80
2023/11/09 01:28:58;;;;;;;25.60;4.10;;;6.50;99.90;;;;;;6229944;28;20067;-80
2023/11/09 01:32:00;;;;;;;18.85;3.58;;;6.50;99.90;;;;;;6223342;28;20061;-80
2023/11/09 01:35:02;;;;;;;23.48;4.30;;;6.50;99.90;;;;;;6244380;28;20052;-81
2023/11/09 01:38:03;;;;;;;16.27;3.67;;;6.50;99.90;;;;;;6247190;28;20079;-81
2023/11/09 01:41:07;;;;;;;20.20;3.47;;;6.60;99.90;;;;;;6223118;28;20065;-80
2023/11/09 01:44:09;;;;;;;18.23;3.75;;;6.60;99.90;;;;;;6234372;28;20050;-80
2023/11/09 01:47:10;;;;;;;20.17;3.03;;;6.60;99.90;;;;;;6246347;28;20057;-80
2023/11/09 01:50:12;;;;;;;17.88;3.67;;;6.60;99.90;;;;;;6223204;28;20069;-80
2023/11/09 01:53:13;;;;;;;17.65;3.65;;;6.60;99.90;;;;;;6246273;28;20049;-79
2023/11/09 01:56:15;;;;;;;17.85;3.22;;;6.60;99.90;;;;;;6222941;28;20433;-80
2023/11/09 01:59:17;;;;;;;27.60;4.32;;;6.60;99.90;;;;;;6232573;28;20061;-80
2023/11/09 02:02:18;;;;;;;19.83;3.42;;;6.60;99.90;;;;;;6246061;28;20060;-80
2023/11/09 02:05:20;;;;;;;19.25;3.63;;;6.60;99.90;;;;;;6222436;28;20419;-80
2023/11/09 02:08:22;;;;;;;21.80;3.75;;;6.60;99.90;;;;;;6245590;28;20136;-80
2023/11/09 02:11:25;;;;;;;17.80;3.35;;;6.60;99.90;;;;;;6222317;28;20054;-80
2023/11/09 02:14:26;;;;;;;18.95;3.20;;;6.60;99.90;;;;;;6225159;28;20053;-79
2023/11/09 02:17:28;;;;;;;16.90;4.38;;;6.50;99.90;;;;;;6204333;28;20535;-80
2023/11/09 02:20:30;;;;;;;22.42;3.25;;;6.50;99.90;;;;;;6245703;28;20497;-81
2023/11/09 02:23:31;;;;;;;23.27;3.55;;;6.40;99.90;;;;;;6204646;28;20058;-80
2023/11/09 02:26:33;;;;;;;21.80;3.65;;;6.40;99.90;;;;;;6227714;28;20393;-80
2023/11/09 02:29:39;;;;;;;18.77;3.60;;;6.30;99.90;;;;;;6229528;28;20061;-79
2023/11/09 02:32:40;;;;;;;23.17;3.92;;;6.30;99.90;;;;;;6221484;28;20053;-79
2023/11/09 02:35:42;;;;;;;20.95;3.75;;;6.30;99.90;;;;;;6242845;28;20062;-80
2023/11/09 02:38:44;;;;;;;20.17;3.88;;;6.30;99.90;;;;;;6221492;28;20073;-80
2023/11/09 02:41:45;;;;;;;23.05;4.05;;;6.40;99.90;;;;;;6227154;28;20068;-80
2023/11/09 02:44:47;;;;;;;22.73;3.63;;;6.30;99.90;;;;;;6216656;28;20069;-79
2023/11/09 02:47:49;;;;;;;19.25;3.40;;;6.40;99.90;;;;;;6203756;28;20386;-80
2023/11/09 02:50:51;;;;;;;20.38;2.92;;;6.40;99.90;;;;;;6244644;28;20692;-79
2023/11/09 02:53:54;;;;;;;23.35;3.28;;;6.40;99.90;;;;;;6203977;28;20061;-79
2023/11/09 02:56:56;;;;;;;19.52;3.50;;;6.40;99.90;;;;;;6245302;28;20053;-80
2023/11/09 02:59:59;;;;;;;25.75;4.03;;;6.50;99.90;;;;;;6217206;28;20053;-80
2023/11/09 03:03:01;;;;;;;23.02;3.53;;;6.50;99.90;;;;;;6220590;28;20101;-80
2023/11/09 03:06:03;;;;;;;15.90;3.35;;;6.60;99.90;;;;;;6242050;28;20072;-80
2023/11/09 03:09:07;;;;;;;16.33;3.85;;;6.60;99.90;;;;;;6245141;28;20056;-80
2023/11/09 03:12:09;;;;;;;24.30;4.25;;;6.70;99.90;;;;;;6220554;28;20061;-80
2023/11/09 03:15:10;;;;;;;17.38;3.40;;;6.70;99.90;;;;;;6241286;28;20448;-80
2023/11/09 03:18:12;;;;;;;17.52;3.05;;;6.80;99.90;;;;;;6203162;28;20534;-80
2023/11/09 03:21:14;;;;;;;19.02;3.78;;;6.90;99.90;;;;;;6244040;28;20053;-80
2023/11/09 03:24:15;;;;;;;22.40;3.42;;;7.00;99.90;;;;;;6220606;28;20108;-80
2023/11/09 03:27:17;;;;;;;19.17;3.50;;;7.00;99.90;;;;;;6243925;28;20061;-80
2023/11/09 03:30:19;;;;;;;19.52;3.58;;;7.00;99.90;;;;;;6215348;28;20069;-79
2023/11/09 03:33:20;;;;;;;21.95;3.50;;;7.10;99.90;;;;;;6226375;28;20064;-80
2023/11/09 03:36:22;;;;;;;21.50;3.70;;;7.10;99.90;;;;;;6216711;28;20555;-80
2023/11/09 03:39:24;;;;;;;21.80;3.35;;;7.10;99.90;;;;;;6219611;28;20414;-80
2023/11/09 03:42:27;;;;;;;17.75;3.17;;;7.00;99.90;;;;;;6225926;28;20056;-79
2023/11/09 03:45:28;;;;;;;17.83;3.15;;;6.90;99.90;;;;;;6218512;28;20425;-79
2023/11/09 03:48:30;;;;;;;22.45;3.53;;;6.90;99.90;;;;;;6243035;28;20539;-80
2023/11/09 03:51:32;;;;;;;18.92;3.22;;;7.00;99.90;;;;;;6202375;28;20054;-80
2023/11/09 03:54:33;;;;;;;16.98;3.30;;;6.90;99.90;;;;;;6243571;28;20049;-79
2023/11/09 03:57:35;;;;;;;19.83;3.30;;;7.00;99.90;;;;;;6220331;28;20460;-80
2023/11/09 04:00:38;;;;;;;17.63;3.45;;;7.00;99.90;;;;;;6241865;28;20079;-80
2023/11/09 04:03:40;;;;;;;16.05;2.88;;;7.10;99.90;;;;;;6201892;28;20141;-80
2023/11/09 04:06:42;;;;;;;22.83;3.95;;;7.20;99.90;;;;;;6243339;28;20403;-80
2023/11/09 04:09:43;;;;;;;23.58;3.80;;;7.30;99.90;;;;;;6219801;28;20228;-80
2023/11/09 04:12:45;;;;;;;27.15;3.35;;;7.40;99.90;;;;;;6225178;28;20054;-80
2023/11/09 04:15:46;;;;;;;18.92;2.97;;;7.40;99.90;;;;;;6216542;28;20212;-80
2023/11/09 04:18:48;;;;;;;19.50;3.75;;;7.50;99.90;;;;;;6201572;28;20057;-80
2023/11/09 04:21:50;;;;;;;20.27;3.70;;;7.50;99.90;;;;;;6217518;28;20058;-80
2023/11/09 04:24:51;;;;;;;18.23;2.75;;;7.50;99.90;;;;;;6242887;28;20103;-80
2023/11/09 04:27:53;;;;;;;19.50;3.40;;;7.60;99.90;;;;;;6219815;28;20143;-80
2023/11/09 04:30:54;;;;;;;20.65;3.10;;;7.60;99.90;;;;;;6242480;28;20049;-80
2023/11/09 04:33:58;;;;;;;22.98;3.83;;;7.60;99.90;;;;;;6218873;28;20053;-81
2023/11/09 04:37:00;;;;;;;20.40;3.40;;;7.60;99.90;;;;;;6219426;28;20421;-80
2023/11/09 04:40:12;;;;;;;24.23;3.30;;;7.60;99.90;;;;;;6224982;28;20045;-81
2023/11/09 04:43:15;;;;;;;20.75;3.55;;;7.60;99.90;;;;;;6218353;28;20081;-82
2023/11/09 04:46:19;;;;;;;19.13;3.10;;;7.60;99.90;;;;;;6225795;28;20076;-80
2023/11/09 04:49:22;;;;;;;18.95;3.00;;;7.80;99.90;;;;;;6203096;28;20524;-81
2023/11/09 04:52:25;;;;;;;20.92;3.38;;;7.80;99.90;;;;;;6248923;28;20049;-80
2023/11/09 04:55:42;;;;;;;16.80;3.13;;;7.80;99.90;;;;;;6227018;28;20264;-80
2023/11/09 04:58:47;;;;;;;20.92;3.40;;;7.90;99.90;;;;;;6230299;28;20056;-81
2023/11/09 05:08:34;;;;;;;15.43;2.95;;;7.90;99.90;;;;;;6150208;29;20182;-81
2023/11/09 05:11:36;;;;;;;14.82;3.10;;;7.80;99.90;;;;;;6172575;28;20216;-80
2023/11/09 05:14:37;;;;;;;17.17;3.05;;;7.90;99.90;;;;;;6172261;28;20057;-79
2023/11/09 05:17:39;;;;;;;22.08;3.50;;;8.00;99.90;;;;;;6155419;28;20061;-79
2023/11/09 05:20:41;;;;;;;18.45;3.40;;;7.90;99.90;;;;;;6171422;28;20057;-80
2023/11/09 05:23:42;;;;;;;20.48;3.47;;;8.00;99.90;;;;;;6156169;28;20081;-80
2023/11/09 05:26:48;;;;;;;23.38;3.50;;;8.00;99.90;;;;;;6171770;28;20050;-80
2023/11/09 05:29:51;;;;;;;21.42;3.22;;;8.10;99.90;;;;;;6170912;28;20091;-80
2023/11/09 05:32:52;;;;;;;19.95;3.15;;;8.00;99.90;;;;;;6155065;28;20057;-80
2023/11/09 05:35:54;;;;;;;15.55;2.95;;;8.00;99.90;;;;;;6154477;28;20151;-80
2023/11/09 05:38:56;;;;;;;18.15;3.05;;;8.10;99.90;;;;;;6170709;28;20082;-80
2023/11/09 05:41:59;;;;;;;21.88;3.33;;;8.00;99.90;;;;;;6194934;28;20057;-81
2023/11/09 05:45:02;;;;;;;20.70;3.33;;;8.10;99.90;;;;;;6225652;28;20095;-81
2023/11/09 05:48:06;;;;;;;18.42;3.08;;;8.10;99.90;;;;;;6222723;28;20050;-81
2023/11/09 05:51:08;;;;;;;14.13;2.58;;;8.10;99.90;;;;;;6228611;28;20166;-80
2023/11/09 05:54:09;;;;;;;17.38;3.15;;;8.20;99.90;;;;;;6222795;28;20050;-80
2023/11/09 05:57:11;;;;;;;19.65;4.22;;;8.20;99.90;;;;;;6245915;28;20068;-81
2023/11/09 06:00:14;;;;;;;21.48;3.45;;;8.20;99.90;;;;;;6202876;28;20049;-80
2023/11/09 06:03:15;;;;;;;20.55;2.92;;;8.20;99.90;;;;;;6229007;28;20053;-81
2023/11/09 06:06:17;;;;;;;25.17;3.53;;;8.30;99.90;;;;;;6220440;28;20050;-81
2023/11/09 06:09:19;;;;;;;20.80;2.85;;;8.40;99.90;;;;;;6204616;28;20049;-81
2023/11/09 06:12:21;;;;;;;16.40;2.78;;;8.40;99.90;;;;;;6228179;28;20136;-80
2023/11/09 06:15:22;;;;;;;18.05;2.90;;;8.40;99.90;;;;;;6218400;28;20061;-81
2023/11/09 06:18:24;;;;;;;18.50;2.67;;;8.40;99.90;;;;;;6245373;28;20072;-81
2023/11/09 06:21:26;;;;;;;16.45;3.13;;;8.50;99.90;;;;;;6222095;28;20061;-81
2023/11/09 06:24:27;;;;;;;15.00;2.95;;;8.50;99.90;;;;;;6227864;28;20046;-81
2023/11/09 06:27:29;;;;;;;20.52;3.15;;;8.50;99.90;;;;;;6221888;28;20543;-81
2023/11/09 06:30:31;;;;;;;16.55;2.80;;;8.50;99.90;;;;;;6226358;28;20053;-80
2023/11/09 06:33:33;;;;;;;18.48;2.70;;;8.50;99.90;;;;;;6204943;28;20057;-81
2023/11/09 06:36:35;;;;;;;20.35;3.55;;;8.50;99.90;;;;;;6231817;28;20058;-80
2023/11/09 06:39:37;;;;;;;19.75;3.30;;;8.40;99.90;;;;;;6227846;28;20045;-81
2023/11/09 06:42:39;;;;;;;19.23;2.88;;;8.40;99.90;;;;;;6221243;28;20096;-80
2023/11/09 06:45:40;;;;;;;16.42;3.13;;;8.30;99.90;;;;;;6244575;28;20049;-79
2023/11/09 06:48:42;;;;;;;11.90;2.55;;;8.30;99.90;;;;;;6203950;28;20573;-80
2023/11/09 06:51:43;;;;;;;16.02;2.65;;;8.30;99.90;;;;;;6244660;28;20076;-80
2023/11/09 06:54:45;;;;;;;15.20;2.83;;;8.30;99.90;;;;;;6221250;28;20151;-80
2023/11/09 06:57:47;;;;;;;14.27;2.60;;;8.30;99.90;;;;;;6227247;28;20060;-81
2023/11/09 07:00:49;;;;;;;15.38;2.92;;;8.20;99.90;;;;;;6218498;28;20050;-81
2023/11/09 07:03:51;;;;;;;14.07;2.90;;;8.10;99.90;;;;;;6221001;28;20528;-80
2023/11/09 07:06:53;;;;;;;14.82;2.63;;;8.00;99.90;;;;;;6229537;28;20137;-80
2023/11/09 07:09:54;;;;;;;12.73;2.90;;;7.90;99.90;;;;;;6227227;28;20049;-80
2023/11/09 07:12:56;;;;;;;9.80;2.15;;;7.80;99.90;;;;;;6202926;28;20056;-80
2023/11/09 07:15:58;;;;;;;11.98;2.58;;;7.70;99.90;;;;;;6242662;28;20480;-80
2023/11/09 07:19:01;;;;;;;15.10;2.30;;;7.50;99.90;;;;;;6222407;28;20053;-82
2023/11/09 07:22:05;;;;;;;11.75;2.45;;;7.50;99.90;;;;;;6228396;28;20869;-81
2023/11/09 07:25:08;;;;;;;18.92;2.95;;;7.40;99.90;;;;;;6223607;28;20054;-82
2023/11/09 07:28:14;;;;;;;13.70;2.50;;;7.40;99.90;;;;;;6221733;28;20064;-84
2023/11/09 07:31:16;;;;;;;11.70;2.45;;;7.30;99.90;;;;;;6228159;28;20057;-83
2023/11/09 07:34:17;;;;;;;13.50;2.65;;;7.30;99.90;;;;;;6221435;28;20069;-84
2023/11/09 07:37:19;;;;;;;12.20;2.15;;;7.30;99.90;;;;;;6244470;28;20092;-83
2023/11/09 07:40:21;;;;;;;12.43;2.25;;;7.30;99.90;;;;;;6220702;28;20046;-83
2023/11/09 07:43:25;;;;;;;10.75;2.50;;;7.40;99.90;;;;;;6238316;28;20065;-82
2023/11/09 07:46:27;;;;;;;14.88;2.92;;;7.40;99.90;;;;;;6202900;28;20049;-82
2023/11/09 07:49:31;;;;;;;11.07;2.17;;;7.50;99.90;;;;;;6226691;28;20061;-83
2023/11/09 07:52:33;;;;;;;12.55;2.97;;;7.50;99.90;;;;;;6219854;28;20049;-83
2023/11/09 07:55:35;;;;;;;11.68;2.35;;;7.50;99.90;;;;;;6244533;28;20057;-83
2023/11/09 07:58:38;;;;;;;10.70;2.20;;;7.70;99.90;;;;;;6224833;28;20421;-83
2023/11/09 08:01:40;;;;;;;10.65;2.30;;;7.80;99.90;;;;;;6244264;28;20065;-83
2023/11/09 08:04:41;;;;;;;11.38;1.90;;;8.00;99.90;;;;;;6202427;28;20199;-83
2023/11/09 08:07:44;;;;;;;10.57;1.77;;;8.20;99.90;;;;;;6205659;28;20152;-82
2023/11/09 08:10:46;;;;;;;7.88;1.60;;;8.30;99.90;;;;;;6227958;28;20057;-83
2023/11/09 08:13:48;;;;;;;8.38;1.42;;;8.50;99.90;;;;;;6227812;28;20111;-83
2023/11/09 08:16:50;;;;;;;7.75;2.10;;;8.60;99.90;;;;;;6222810;28;20049;-84
2023/11/09 08:19:52;;;;;;;4.20;1.08;;;8.70;99.90;;;;;;6229891;28;20056;-83
2023/11/09 08:22:54;;;;;;;9.38;1.30;;;8.70;99.90;;;;;;6223583;28;20054;-83
2023/11/09 08:25:55;;;;;;;7.68;1.52;;;8.60;99.90;;;;;;6246276;28;20061;-83
2023/11/09 08:28:58;;;;;;;8.80;1.75;;;8.60;99.90;;;;;;6211753;28;20447;-83
2023/11/09 08:32:02;;;;;;;9.90;2.10;;;8.60;99.90;;;;;;6202279;28;20053;-82
2023/11/09 08:35:09;;;;;;;7.65;1.40;;;8.60;99.90;;;;;;6242280;28;20520;-81
2023/11/09 08:38:11;;;;;;;11.50;1.73;;;8.60;99.90;;;;;;6219426;28;20050;-83
2023/11/09 08:41:15;;;;;;;10.52;1.35;;;8.70;99.90;;;;;;6243294;28;20417;-82
2023/11/09 08:44:18;;;;;;;11.40;1.88;;;8.70;99.90;;;;;;6226630;28;20478;-81
2023/11/09 08:47:21;;;;;;;8.32;1.58;;;8.70;99.90;;;;;;6203543;28;20057;-83
2023/11/09 08:50:24;;;;;;;13.65;1.35;;;8.80;99.90;;;;;;6244296;28;20064;-83
2023/11/09 08:53:29;;;;;;;9.50;1.70;;;8.80;99.90;;;;;;6203197;28;20050;-83
2023/11/09 08:56:31;;;;;;;7.13;1.67;;;8.80;99.90;;;;;;6243534;28;20064;-82
2023/11/09 08:59:34;;;;;;;6.75;1.50;;;8.80;99.90;;;;;;6215852;28;20422;-82
2023/11/09 09:02:39;;;;;;;6.05;1.15;;;8.80;99.90;;;;;;6220469;28;20054;-81
2023/11/09 09:05:41;;;;;;;7.22;1.33;;;9.00;99.90;;;;;;6224039;28;20056;-81
2023/11/09 09:08:44;;;;;;;4.95;0.85;;;9.10;99.90;;;;;;6225795;28;20143;-80
2023/11/09 09:11:49;;;;;;;5.68;1.20;;;9.20;99.90;;;;;;6201436;28;20064;-81
2023/11/09 09:14:52;;;;;;;6.95;1.10;;;9.80;99.90;;;;;;6240096;28;20057;-81
2023/11/09 09:17:55;;;;;;;4.50;0.90;;;10.10;98.50;;;;;;6200920;28;20057;-81
2023/11/09 09:20:57;;;;;;;3.80;0.70;;;9.90;99.30;;;;;;6242308;28;20501;-81
2023/11/09 09:23:59;;;;;;;5.28;0.90;;;9.80;99.90;;;;;;6201289;28;20058;-80
2023/11/09 09:27:00;;;;;;;2.72;0.88;;;10.40;99.90;;;;;;6224667;28;20056;-81
2023/11/09 09:30:02;;;;;;;8.27;1.13;;;11.10;99.90;;;;;;6223685;28;20050;-79
2023/11/09 09:33:03;;;;;;;2.97;0.77;;;11.40;98.60;;;;;;6218858;28;20073;-81
2023/11/09 09:36:05;;;;;;;5.95;1.23;;;11.20;94.10;;;;;;6225462;28;20061;-80
2023/11/09 09:39:08;;;;;;;5.50;0.98;;;10.70;93.50;;;;;;6205995;28;20057;-82
2023/11/09 09:42:14;;;;;;;5.57;0.90;;;10.40;96.50;;;;;;6230127;28;20818;-83
2023/11/09 09:45:16;;;;;;;4.32;0.90;;;10.20;99.80;;;;;;6221208;28;20391;-82
2023/11/09 09:48:18;;;;;;;5.10;0.98;;;10.20;99.80;;;;;;6245357;28;20076;-82
2023/11/09 09:51:21;;;;;;;5.35;0.80;;;10.50;98.10;;;;;;6224227;28;20058;-83
2023/11/09 09:54:24;;;;;;;7.88;1.08;;;11.10;98.50;;;;;;6229517;28;20045;-82
2023/11/09 09:57:26;;;;;;;3.90;0.80;;;11.90;98.10;;;;;;6205840;28;20061;-82
2023/11/09 10:00:27;;;;;;;5.70;0.88;;;11.80;92.70;;;;;;6227314;28;20049;-84
2023/11/09 10:03:29;;;;;;;3.92;0.70;;;11.80;93.80;;;;;;6223471;28;20062;-83
2023/11/09 10:06:31;;;;;;;6.65;0.93;;;12.10;96.30;;;;;;6244951;28;20067;-83
2023/11/09 10:09:32;;;;;;;3.40;0.80;;;13.20;95.70;;;;;;6205635;28;20046;-84
2023/11/09 10:12:34;;;;;;;3.50;0.90;;;14.00;96.20;;;;;;6247288;28;20085;-83
2023/11/09 10:15:36;;;;;;;4.50;1.20;;;14.40;77.70;;;;;;6222376;28;20078;-82
2023/11/09 10:18:38;;;;;;;8.38;1.10;;;14.70;38.40;;;;;;6229396;28;20053;-83
2023/11/09 10:21:43;;;;;;;4.40;1.00;;;14.80;77.90;;;;;;6205398;28;20049;-84
2023/11/09 10:24:46;;;;;;;4.43;0.90;;;14.90;63.20;;;;;;6204978;28;20485;-83
2023/11/09 10:27:47;;;;;;;4.75;1.08;;;14.80;35.30;;;;;;6230875;28;20049;-85
2023/11/09 10:30:49;;;;;;;5.75;0.90;;;14.50;42.90;;;;;;6222855;28;20049;-84
2023/11/09 10:33:52;;;;;;;4.28;0.93;;;14.10;37.40;;;;;;6206202;28;20057;-83
2023/11/09 10:36:57;;;;;;;9.30;1.20;;;13.20;53.50;;;;;;6228718;28;20112;-83
2023/11/09 10:40:01;;;;;;;4.35;0.77;;;12.50;69.70;;;;;;6205649;28;20383;-86
2023/11/09 10:43:05;;;;;;;5.30;0.98;;;12.10;78.60;;;;;;6228629;28;20056;-85
2023/11/09 10:46:08;;;;;;;4.07;1.08;;;11.90;88.10;;;;;;6205392;28;20066;-83
2023/11/09 10:49:13;;;;;;;3.83;1.08;;;11.70;91.60;;;;;;6229210;28;20053;-84
2023/11/09 10:52:15;;;;;;;5.65;1.42;;;11.60;92.50;;;;;;6207885;28;20641;-87
2023/11/09 10:55:19;;;;;;;4.90;1.00;;;11.50;91.70;;;;;;6230465;28;20053;-86
2023/11/09 10:58:23;;;;;;;7.32;1.10;;;11.30;91.80;;;;;;6210286;28;20049;-86
2023/11/09 11:01:25;;;;;;;6.55;1.42;;;11.20;92.00;;;;;;6248243;28;20045;-86
2023/11/09 11:04:26;;;;;;;5.47;1.30;;;11.10;91.50;;;;;;6206741;28;20065;-84
2023/11/09 11:07:29;;;;;;;7.90;1.30;;;10.90;90.80;;;;;;6218642;28;20046;-85
2023/11/09 11:10:42;;;;;;;6.78;1.20;;;10.80;91.30;;;;;;6224092;28;20070;-88
2023/11/09 11:13:44;;;;;;;5.45;1.15;;;10.70;90.30;;;;;;6220529;28;20061;-84
2023/11/09 11:16:47;;;;;;;7.38;1.23;;;10.70;92.20;;;;;;6228904;28;20094;-86
2023/11/09 11:19:48;;;;;;;4.75;1.20;;;10.70;89.90;;;;;;6222777;28;20103;-85
2023/11/09 11:22:50;;;;;;;6.65;1.15;;;10.70;92.10;;;;;;6230483;28;20271;-85
2023/11/09 11:25:55;;;;;;;7.70;1.92;;;10.60;90.30;;;;;;6207414;28;20659;-86
2023/11/09 11:29:00;;;;;;;8.15;1.50;;;10.60;91.70;;;;;;6219879;28;20048;-85
2023/11/09 11:32:01;;;;;;;7.88;1.45;;;10.60;91.70;;;;;;6229760;28;20053;-87
2023/11/09 11:35:14;;;;;;;7.57;1.13;;;10.50;92.60;;;;;;6226947;28;20079;-86
2023/11/09 11:38:16;;;;;;;7.63;1.20;;;10.50;93.30;;;;;;6235057;28;20107;-87
2023/11/09 11:41:20;;;;;;;7.57;1.50;;;10.50;92.10;;;;;;6221647;28;20052;-85
2023/11/09 11:44:23;;;;;;;6.50;1.42;;;10.60;93.50;;;;;;6243561;28;20049;-86
2023/11/09 11:47:39;;;;;;;8.40;1.45;;;10.70;93.10;;;;;;6247621;28;20030;-87
2023/11/09 11:50:40;;;;;;;7.43;1.38;;;10.60;93.50;;;;;;6256354;28;20050;-86
2023/11/09 11:53:43;;;;;;;8.45;1.40;;;10.70;92.80;;;;;;6232469;28;20053;-86
2023/11/09 11:56:45;;;;;;;5.82;1.10;;;10.70;92.10;;;;;;6269941;28;20050;-86
2023/11/09 11:59:50;;;;;;;8.95;1.30;;;10.70;92.70;;;;;;6219836;28;20527;-84
2023/11/09 12:02:52;;;;;;;5.68;1.30;;;10.70;92.00;;;;;;6208638;28;20068;-86
2023/11/09 12:05:54;;;;;;;8.77;1.33;;;10.80;91.90;;;;;;6230300;28;20199;-85
2023/11/09 12:08:58;;;;;;;5.22;1.20;;;10.70;85.90;;;;;;6234787;28;20041;-83
2023/11/09 12:12:00;;;;;;;5.10;1.30;;;10.80;87.30;;;;;;6208003;28;20061;-84
2023/11/09 12:15:02;;;;;;;6.90;1.15;;;11.20;87.60;;;;;;6227709;28;20076;-88
2023/11/09 12:18:03;;;;;;;5.00;1.02;;;12.40;64.30;;;;;;6205232;28;20147;-85
2023/11/09 12:21:05;;;;;;;5.95;1.00;;;13.10;33.90;;;;;;6230178;28;20064;-86
2023/11/09 12:24:12;;;;;;;4.47;0.95;;;13.90;37.70;;;;;;6230987;28;20045;-86
2023/11/09 12:27:15;;;;;;;3.40;0.95;;;14.00;1.00;;;;;;6220173;28;20048;-87
2023/11/09 12:30:17;;;;;;;5.47;1.48;;;13.90;1.00;;;;;;6242294;28;20053;-86
2023/11/09 12:33:19;;;;;;;8.18;1.13;;;14.00;1.00;;;;;;6203742;28;20053;-84
2023/11/09 12:36:20;;;;;;;4.75;1.30;;;13.90;1.00;;;;;;6231881;28;20065;-85
2023/11/09 12:39:31;;;;;;;5.55;0.85;;;13.60;1.00;;;;;;6228480;28;20057;-83
2023/11/09 12:42:34;;;;;;;3.88;1.00;;;13.70;1.00;;;;;;6207299;28;20081;-88
2023/11/09 12:45:38;;;;;;;5.07;0.90;;;13.70;1.00;;;;;;6227506;28;20049;-86
2023/11/09 12:48:43;;;;;;;7.18;1.15;;;13.80;1.00;;;;;;6205833;28;20049;-86
2023/11/09 12:51:47;;;;;;;3.20;0.98;;;13.80;1.00;;;;;;6206562;28;20131;-85
2023/11/09 12:54:48;;;;;;;7.47;1.35;;;14.20;1.00;;;;;;6228967;28;20064;-86
2023/11/09 12:57:50;;;;;;;5.07;1.10;;;14.10;1.00;;;;;;6204294;28;20216;-86
2023/11/09 13:00:52;;;;;;;4.18;1.20;;;13.50;1.00;;;;;;6225741;28;20057;-85
2023/11/09 13:03:56;;;;;;;5.75;1.58;;;13.40;1.00;;;;;;6221018;28;20057;-86
2023/11/09 13:06:58;;;;;;;8.57;1.38;;;13.30;1.00;;;;;;6231870;28;20135;-85
2023/11/09 13:10:24;;;;;;;4.65;1.00;;;13.50;1.00;;;;;;6225809;28;20398;-84
2023/11/09 13:13:24;;;;;;;4.25;1.00;;;13.60;1.00;;;;;;6228186;28;20050;-86
2023/11/09 13:16:26;;;;;;;4.72;1.00;;;13.60;1.00;;;;;;6232602;28;20053;-85
2023/11/09 13:19:29;;;;;;;5.13;1.25;;;13.60;1.00;;;;;;6207828;28;20147;-86
2023/11/09 13:22:37;;;;;;;7.07;0.98;;;13.60;1.00;;;;;;6232773;28;20165;-84
2023/11/09 13:25:39;;;;;;;3.60;1.00;;;13.50;1.00;;;;;;6227615;28;20057;-89
2023/11/09 13:28:45;;;;;;;5.30;1.30;;;13.70;1.00;;;;;;6243633;28;20791;-87
2023/11/09 13:31:47;;;;;;;6.18;1.75;;;13.70;1.00;;;;;;6209132;28;20054;-85
2023/11/09 13:35:19;;;;;;;4.93;1.38;;;14.10;1.00;;;;;;6233190;28;20053;-88
2023/11/09 13:38:12;;;;;;;6.43;1.35;;;14.10;1.00;;;;;;6225510;28;20061;-87
2023/11/09 13:41:17;;;;;;;5.13;1.30;;;14.30;1.00;;;;;;6248745;28;20057;-86
2023/11/09 13:44:24;;;;;;;5.03;1.10;;;14.70;1.00;;;;;;6217731;28;20567;-86
2023/11/09 13:47:27;;;;;;;5.30;1.70;;;14.50;1.00;;;;;;6209038;28;20045;-86
2023/11/09 13:50:30;;;;;;;6.30;1.00;;;14.10;1.00;;;;;;6231684;28;20053;-87
2023/11/09 13:59:59;;;;;;;6.35;1.13;;;14.30;1.00;;;;;;6240186;28;20068;-85
2023/11/09 14:03:02;;;;;;;5.63;1.40;;;13.90;1.00;;;;;;6205318;28;20192;-86
2023/11/09 14:06:08;;;;;;;6.93;1.25;;;13.50;1.00;;;;;;6230542;28;20046;-86
2023/11/09 14:09:10;;;;;;;6.90;1.10;;;13.30;1.00;;;;;;6230437;28;20141;-86
2023/11/09 14:12:30;;;;;;;5.38;1.23;;;13.60;1.00;;;;;;6206003;28;20076;-86
2023/11/09 14:15:32;;;;;;;7.88;1.27;;;13.10;1.00;;;;;;6219159;28;20058;-87
2023/11/09 14:18:50;;;;;;;10.13;1.77;;;12.50;1.00;;;;;;6247539;28;20057;-86
2023/11/09 14:21:52;;;;;;;9.30;1.75;;;12.00;1.00;;;;;;6223005;28;20054;-86
2023/11/09 14:24:54;;;;;;;11.07;2.00;;;11.60;1.00;;;;;;6246527;28;20061;-84
2023/11/09 14:27:57;;;;;;;9.90;2.10;;;11.40;1.00;;;;;;6206068;28;20192;-86
2023/11/09 14:30:59;;;;;;;11.25;1.92;;;11.30;1.00;;;;;;6228937;28;20064;-85
2023/11/09 14:34:01;;;;;;;13.88;2.38;;;11.20;1.00;;;;;;6206053;28;20062;-86
2023/11/09 14:37:02;;;;;;;7.10;1.60;;;11.10;1.00;;;;;;6221460;28;20069;-87
2023/11/09 14:40:13;;;;;;;7.55;1.98;;;11.00;5.10;;;;;;6246392;28;20096;-85
2023/11/09 14:43:15;;;;;;;12.82;2.05;;;11.00;10.00;;;;;;6224272;28;20056;-87
2023/11/09 14:46:20;;;;;;;10.75;1.50;;;10.80;32.50;;;;;;6232094;28;20137;-88
2023/11/09 14:49:22;;;;;;;12.57;2.30;;;10.70;52.90;;;;;;6205985;28;20587;-88
2023/11/09 14:52:40;;;;;;;9.00;1.45;;;10.70;64.40;;;;;;6221659;28;20457;-87
2023/11/09 14:55:44;;;;;;;9.05;1.50;;;10.50;75.10;;;;;;6221657;28;20153;-84
2023/11/09 14:58:46;;;;;;;6.65;1.33;;;10.10;83.80;;;;;;6218450;28;20087;-83
2023/11/09 15:01:48;;;;;;;5.60;1.30;;;9.80;91.50;;;;;;6245005;28;20049;-84
2023/11/09 15:04:56;;;;;;;6.80;1.35;;;9.50;92.40;;;;;;6203783;28;20065;-83
2023/11/09 15:07:58;;;;;;;5.75;1.30;;;9.40;94.80;;;;;;6239744;28;20488;-83
2023/11/09 15:11:00;;;;;;;6.57;1.70;;;9.30;96.00;;;;;;6204425;28;20081;-84
2023/11/09 15:14:05;;;;;;;9.00;1.88;;;9.20;96.20;;;;;;6235139;28;20494;-83
2023/11/09 15:17:09;;;;;;;6.13;1.65;;;9.20;96.00;;;;;;6245609;28;20053;-82
2023/11/09 15:20:21;;;;;;;8.23;1.70;;;9.10;96.60;;;;;;6204780;28;20058;-81
2023/11/09 15:23:23;;;;;;;10.63;1.80;;;9.10;95.90;;;;;;6221140;28;20414;-82
2023/11/09 15:26:33;;;;;;;7.85;1.40;;;9.10;95.80;;;;;;6203911;28;20668;-83
2023/11/09 15:29:34;;;;;;;7.18;1.75;;;9.10;94.40;;;;;;6212621;28;20058;-84
2023/11/09 15:32:36;;;;;;;7.57;2.00;;;9.10;93.70;;;;;;6245496;28;20520;-83
2023/11/09 15:35:38;;;;;;;6.45;1.55;;;9.00;92.80;;;;;;6218265;28;20060;-86
2023/11/09 15:38:41;;;;;;;8.63;2.00;;;9.00;94.60;;;;;;6227717;28;20049;-84
2023/11/09 15:41:42;;;;;;;8.23;1.70;;;8.90;93.60;;;;;;6204819;28;20057;-84
2023/11/09 15:44:45;;;;;;;8.30;1.35;;;8.80;93.10;;;;;;6208935;28;20060;-84
2023/11/09 15:47:47;;;;;;;8.52;1.75;;;8.80;93.20;;;;;;6230322;28;20056;-84
2023/11/09 15:50:49;;;;;;;7.88;1.60;;;8.70;92.20;;;;;;6205484;28;20136;-84
2023/11/09 15:53:51;;;;;;;10.43;1.58;;;8.60;91.30;;;;;;6247139;28;20052;-84
2023/11/09 15:56:52;;;;;;;9.30;1.70;;;8.60;92.30;;;;;;6223265;28;20330;-85
2023/11/09 15:59:57;;;;;;;8.07;1.50;;;8.40;92.80;;;;;;6227636;28;20053;-84
2023/11/09 16:02:58;;;;;;;12.85;1.90;;;8.40;91.20;;;;;;6209031;28;20053;-84
2023/11/09 16:06:00;;;;;;;9.55;1.70;;;8.30;91.30;;;;;;6229514;28;20061;-84
2023/11/09 16:09:01;;;;;;;10.45;1.80;;;8.20;92.20;;;;;;6223653;28;20046;-84